Terminal Aerodrome Forecast
Issued by NWS Cleveland, OH

Home | Current Version | Previous Version | Text Only | Print | Product List | Glossary On
Versions: 1 2 3 4 5 6 7 8 9 10 11 12 13 14 15 16 17 18 19 20 21 22 23
000
FTUS41 KCLE 051314 AAA
TAFERI
TAF AMD
KERI 051314Z 0513/0612 04012KT 3SM BR OVC003
      TEMPO 0514/0516 BKN007 OVC010
     FM051600 03015KT P6SM BKN012
     FM051800 02012G20KT P6SM BKN012 OVC035
     FM052000 03012G20KT P6SM SCT012 BKN035
     FM060000 36005KT P6SM BKN035=

USA.gov is the U.S. government's official web portal to all federal, state and local government web resources and services.